Open Full Screen Window  High Contrast Mode
Wind Gusting 00 knots
05
April 25, 2017 8:11 PM EDT
Weather Information
Wind Direction
  120 °
Wind Speed
  05 kt (6 mph)
Wind Gust
  00 kt (0 mph)
Altimeter
29.79 in
Visibility
10 SM
Temperature
17° C
63° F
Dewpoint
12° C
54° F
Humidity
73%
1hr Rain Fall
00.00 in.
24hr Rain Fall
00.11 in.
Sky Condition
Overcast @ 2,800 ft
MVFR

METAR KPOV 260011Z AUTO 12005KT 10SM OVC028 17/12 A2979 RMK AO2 T01700118

*Background is not an actual portrayal of the airport.